Time;durP1;ratioP1;P1;durP2;ratioP2;P2;SDS_P1;SDS_P2;PMS_P1;PMS_P2;Temp;Humidity;BMP_temperature;BMP_pressure;BME280_temperature;BME280_humidity;BME280_pressure;Samples;Min_cycle;Max_cycle;Signal;HPM_P1;HPM_P2
2022/04/15 00:01:14;;;;;;;3.80;1.60;;;;;;;;;;5046799;28;20150;-67
2022/04/15 00:03:41;;;;;;;3.50;1.40;;;;;;;;;;5046974;28;20438;-67
2022/04/15 00:06:08;;;;;;;6.40;1.77;;;;;;;;;;5047110;28;20465;-67
2022/04/15 00:08:35;;;;;;;4.15;1.58;;;;;;;;;;5046900;28;20052;-67
2022/04/15 00:11:01;;;;;;;3.13;1.77;;;;;;;;;;5046186;28;20040;-67
2022/04/15 00:13:29;;;;;;;4.45;1.52;;;;;;;;;;5046857;28;20508;-67
2022/04/15 00:16:06;;;;;;;3.42;1.70;;;;;;;;;;5046752;28;20075;-67
2022/04/15 00:18:32;;;;;;;4.07;1.70;;;;;;;;;;5046212;28;20045;-67
2022/04/15 00:20:59;;;;;;;2.08;1.48;;;;;;;;;;5046346;28;20052;-68
2022/04/15 00:23:25;;;;;;;4.35;1.75;;;;;;;;;;5046216;28;20127;-68
2022/04/15 00:25:52;;;;;;;2.70;1.48;;;;;;;;;;5045703;28;20077;-67
2022/04/15 00:28:18;;;;;;;4.15;1.85;;;;;;;;;;5046507;28;20111;-67
2022/04/15 00:30:44;;;;;;;3.60;1.48;;;;;;;;;;5046634;28;20053;-68
2022/04/15 00:33:11;;;;;;;4.15;1.63;;;;;;;;;;5046839;28;20101;-68
2022/04/15 00:35:37;;;;;;;3.15;1.30;;;;;;;;;;5045420;28;20063;-68
2022/04/15 00:38:03;;;;;;;3.90;1.67;;;;;;;;;;5046627;28;20492;-68
2022/04/15 00:40:29;;;;;;;2.80;1.30;;;;;;;;;;5046327;28;20438;-68
2022/04/15 00:42:55;;;;;;;3.58;1.50;;;;;;;;;;5045800;28;20125;-68
2022/04/15 00:45:21;;;;;;;2.80;1.50;;;;;;;;;;5046090;28;20132;-69
2022/04/15 00:47:51;;;;;;;4.32;1.50;;;;;;;;;;5045903;28;20048;-69
2022/04/15 00:50:17;;;;;;;14.80;2.33;;;;;;;;;;5046310;28;20198;-67
2022/04/15 00:52:44;;;;;;;9.05;1.77;;;;;;;;;;5046665;28;20468;-67
2022/04/15 00:55:10;;;;;;;2.22;1.35;;;;;;;;;;5046301;28;20364;-67
2022/04/15 00:57:38;;;;;;;5.18;1.65;;;;;;;;;;5027976;28;20044;-67
2022/04/15 01:00:05;;;;;;;3.88;1.60;;;;;;;;;;5045720;28;20037;-67
2022/04/15 01:02:32;;;;;;;4.25;1.60;;;;;;;;;;5028020;28;20080;-67
2022/04/15 01:04:59;;;;;;;4.80;1.35;;;;;;;;;;5046133;28;20045;-67
2022/04/15 01:07:27;;;;;;;3.33;1.63;;;;;;;;;;5045791;28;20434;-67
2022/04/15 01:09:53;;;;;;;3.05;1.50;;;;;;;;;;5042747;28;20044;-67
2022/04/15 01:12:22;;;;;;;3.20;1.48;;;;;;;;;;5045614;28;20124;-67
2022/04/15 01:14:49;;;;;;;3.20;1.52;;;;;;;;;;5045350;28;20080;-67
2022/04/15 01:17:15;;;;;;;5.28;1.60;;;;;;;;;;5045875;28;20133;-67
2022/04/15 01:19:41;;;;;;;4.13;1.30;;;;;;;;;;5045857;28;20068;-67
2022/04/15 01:22:13;;;;;;;2.67;1.50;;;;;;;;;;5045837;28;20051;-68
2022/04/15 01:24:39;;;;;;;4.13;1.60;;;;;;;;;;5046286;28;20373;-67
2022/04/15 01:27:06;;;;;;;5.70;1.63;;;;;;;;;;5045856;28;20049;-67
2022/04/15 01:29:42;;;;;;;3.50;1.33;;;;;;;;;;5045962;28;20420;-67
2022/04/15 01:32:08;;;;;;;4.03;1.58;;;;;;;;;;5044854;28;20488;-67
2022/04/15 01:34:34;;;;;;;4.05;1.80;;;;;;;;;;5045034;28;20387;-67
2022/04/15 01:37:01;;;;;;;3.83;1.50;;;;;;;;;;5043325;28;20512;-67
2022/04/15 01:39:28;;;;;;;2.33;1.40;;;;;;;;;;5046148;28;20053;-67
2022/04/15 01:41:54;;;;;;;3.78;1.40;;;;;;;;;;5045708;28;20057;-67
2022/04/15 01:44:20;;;;;;;2.67;1.30;;;;;;;;;;5046162;28;20136;-68
2022/04/15 01:46:46;;;;;;;5.75;1.88;;;;;;;;;;5043110;28;20194;-67
2022/04/15 01:49:12;;;;;;;3.00;1.40;;;;;;;;;;5046110;28;20176;-67
2022/04/15 01:51:38;;;;;;;5.63;1.70;;;;;;;;;;5045766;28;20040;-67
2022/04/15 01:54:04;;;;;;;4.35;1.40;;;;;;;;;;5046632;28;20056;-67
2022/04/15 01:56:30;;;;;;;4.95;1.33;;;;;;;;;;5049854;28;20086;-67
2022/04/15 01:58:56;;;;;;;4.90;1.33;;;;;;;;;;5049831;28;20037;-68
2022/04/15 02:01:22;;;;;;;4.30;1.60;;;;;;;;;;5048917;28;20053;-68
2022/04/15 02:03:49;;;;;;;3.63;1.52;;;;;;;;;;5049496;28;20581;-67
2022/04/15 02:06:15;;;;;;;3.80;1.50;;;;;;;;;;5049441;28;20049;-67
2022/04/15 02:08:41;;;;;;;3.47;1.70;;;;;;;;;;5048365;28;20044;-67
2022/04/15 02:11:07;;;;;;;5.28;1.77;;;;;;;;;;5049379;28;20052;-67
2022/04/15 02:13:33;;;;;;;6.10;2.00;;;;;;;;;;5048556;28;20037;-67
2022/04/15 02:15:59;;;;;;;3.80;1.52;;;;;;;;;;5048985;28;20047;-67
2022/04/15 02:18:26;;;;;;;3.92;1.73;;;;;;;;;;5048441;28;20071;-67
2022/04/15 02:20:55;;;;;;;4.20;1.70;;;;;;;;;;5048723;28;20049;-67
2022/04/15 02:23:21;;;;;;;3.20;1.42;;;;;;;;;;5048842;28;20033;-67
2022/04/15 02:25:47;;;;;;;4.85;1.77;;;;;;;;;;5048708;28;20052;-67
2022/04/15 02:28:13;;;;;;;4.75;1.77;;;;;;;;;;5046574;28;20036;-67
2022/04/15 02:30:39;;;;;;;4.43;1.55;;;;;;;;;;5048450;28;20040;-67
2022/04/15 02:33:05;;;;;;;3.88;1.65;;;;;;;;;;5048778;28;20072;-67
2022/04/15 02:35:31;;;;;;;5.38;1.60;;;;;;;;;;5047645;28;20071;-67
2022/04/15 02:37:57;;;;;;;3.58;1.40;;;;;;;;;;5048270;28;20299;-67
2022/04/15 02:40:23;;;;;;;4.40;1.73;;;;;;;;;;5048765;28;20090;-67
2022/04/15 02:42:49;;;;;;;5.35;2.05;;;;;;;;;;5048857;28;20040;-67
2022/04/15 02:45:15;;;;;;;3.20;1.80;;;;;;;;;;5048100;28;20084;-67
2022/04/15 02:47:41;;;;;;;4.20;1.90;;;;;;;;;;5048985;28;20449;-68
2022/04/15 02:50:07;;;;;;;5.82;2.03;;;;;;;;;;5048513;28;20089;-67
2022/04/15 02:52:35;;;;;;;5.22;2.10;;;;;;;;;;5047448;28;20076;-67
2022/04/15 02:55:01;;;;;;;6.00;1.92;;;;;;;;;;5048393;28;20102;-67
2022/04/15 02:57:27;;;;;;;6.28;2.22;;;;;;;;;;5048529;28;20044;-67
2022/04/15 02:59:53;;;;;;;5.32;2.33;;;;;;;;;;5048072;28;20037;-67
2022/04/15 03:02:19;;;;;;;4.72;2.00;;;;;;;;;;5048762;28;20123;-67
2022/04/15 03:04:45;;;;;;;5.35;2.20;;;;;;;;;;5047472;28;20037;-67
2022/04/15 03:07:11;;;;;;;6.18;2.25;;;;;;;;;;5046938;28;20043;-67
2022/04/15 03:09:37;;;;;;;10.82;2.35;;;;;;;;;;5047863;28;20048;-67
2022/04/15 03:12:04;;;;;;;7.03;2.63;;;;;;;;;;5048318;28;20175;-67
2022/04/15 03:14:30;;;;;;;4.05;1.85;;;;;;;;;;5047762;28;20503;-67
2022/04/15 03:16:56;;;;;;;5.32;2.08;;;;;;;;;;5047633;28;20071;-67
2022/04/15 03:19:22;;;;;;;5.97;2.10;;;;;;;;;;5048066;28;20108;-67
2022/04/15 03:21:48;;;;;;;5.70;2.50;;;;;;;;;;5047615;28;20069;-67
2022/04/15 03:24:14;;;;;;;3.97;2.10;;;;;;;;;;5047833;28;20045;-67
2022/04/15 03:26:40;;;;;;;4.60;2.00;;;;;;;;;;5048070;28;20041;-67
2022/04/15 03:29:06;;;;;;;5.03;2.30;;;;;;;;;;5047314;28;20056;-67
2022/04/15 03:31:32;;;;;;;5.25;2.03;;;;;;;;;;5047669;28;20060;-67
2022/04/15 03:33:58;;;;;;;3.40;1.95;;;;;;;;;;5047284;28;20510;-67
2022/04/15 03:36:24;;;;;;;4.90;2.10;;;;;;;;;;5046800;28;20065;-67
2022/04/15 03:38:50;;;;;;;4.65;2.00;;;;;;;;;;5046966;28;20056;-67
2022/04/15 03:41:16;;;;;;;4.90;2.28;;;;;;;;;;5046847;28;20407;-67
2022/04/15 03:43:42;;;;;;;3.85;2.10;;;;;;;;;;5046985;28;20056;-67
2022/04/15 03:46:08;;;;;;;4.75;1.80;;;;;;;;;;5046223;28;20116;-67
2022/04/15 03:48:34;;;;;;;3.15;1.90;;;;;;;;;;5046886;28;21241;-67
2022/04/15 03:51:00;;;;;;;3.13;2.05;;;;;;;;;;5046149;28;20049;-67
2022/04/15 03:53:27;;;;;;;3.50;1.92;;;;;;;;;;5044608;28;20041;-67
2022/04/15 03:55:53;;;;;;;4.10;2.45;;;;;;;;;;5046527;28;20056;-67
2022/04/15 03:58:19;;;;;;;3.05;1.98;;;;;;;;;;5046231;28;20047;-67
2022/04/15 04:00:45;;;;;;;3.47;2.05;;;;;;;;;;5046363;28;20048;-67
2022/04/15 04:03:12;;;;;;;6.78;2.25;;;;;;;;;;5046555;28;20418;-68
2022/04/15 04:05:38;;;;;;;3.25;1.77;;;;;;;;;;5046249;28;20051;-67
2022/04/15 04:08:05;;;;;;;2.83;1.70;;;;;;;;;;5046191;28;20419;-67
2022/04/15 04:10:32;;;;;;;4.28;2.08;;;;;;;;;;5046345;28;20473;-67
2022/04/15 04:12:59;;;;;;;3.92;2.05;;;;;;;;;;5044399;28;20040;-67
2022/04/15 04:15:25;;;;;;;4.43;1.88;;;;;;;;;;5045800;28;20045;-67
2022/04/15 04:17:51;;;;;;;3.58;2.10;;;;;;;;;;5047114;28;20068;-68
2022/04/15 04:20:18;;;;;;;4.38;2.03;;;;;;;;;;5047966;28;20430;-67
2022/04/15 04:22:44;;;;;;;3.97;1.90;;;;;;;;;;5048135;28;20055;-67
2022/04/15 04:25:10;;;;;;;5.70;2.08;;;;;;;;;;5047535;28;20084;-67
2022/04/15 04:27:37;;;;;;;4.18;1.83;;;;;;;;;;5047461;28;20057;-67
2022/04/15 04:30:03;;;;;;;3.50;2.03;;;;;;;;;;5047906;28;20083;-67
2022/04/15 04:32:29;;;;;;;3.03;1.83;;;;;;;;;;5047901;28;20160;-67
2022/04/15 04:34:55;;;;;;;3.67;1.98;;;;;;;;;;5047409;28;20099;-68
2022/04/15 04:37:21;;;;;;;3.85;2.33;;;;;;;;;;5047599;28;20433;-68
2022/04/15 04:39:47;;;;;;;3.75;2.72;;;;;;;;;;5047748;28;20052;-68
2022/04/15 04:42:14;;;;;;;3.15;1.77;;;;;;;;;;5047271;28;20048;-68
2022/04/15 04:44:40;;;;;;;3.45;2.25;;;;;;;;;;5048657;28;20075;-68
2022/04/15 04:47:07;;;;;;;3.55;1.90;;;;;;;;;;5048049;28;20601;-67
2022/04/15 04:49:33;;;;;;;3.67;1.83;;;;;;;;;;5048707;28;20129;-67
2022/04/15 04:52:00;;;;;;;3.25;1.80;;;;;;;;;;5048217;28;20259;-67
2022/04/15 04:54:26;;;;;;;2.70;1.38;;;;;;;;;;5047888;28;20045;-67
2022/04/15 04:56:52;;;;;;;2.53;1.52;;;;;;;;;;5048203;28;20061;-67
2022/04/15 04:59:18;;;;;;;2.83;1.70;;;;;;;;;;5030276;28;20064;-67
2022/04/15 05:01:44;;;;;;;4.55;2.10;;;;;;;;;;5030247;28;20045;-67
2022/04/15 05:04:10;;;;;;;5.65;2.38;;;;;;;;;;5047426;28;20535;-68
2022/04/15 05:06:36;;;;;;;2.90;1.70;;;;;;;;;;5047549;28;20447;-68
2022/04/15 05:09:02;;;;;;;4.38;1.95;;;;;;;;;;5047526;28;20525;-67
2022/04/15 05:11:28;;;;;;;3.83;1.98;;;;;;;;;;5047825;28;20053;-67
2022/04/15 05:13:54;;;;;;;2.55;1.80;;;;;;;;;;5047475;28;20094;-67
2022/04/15 05:16:20;;;;;;;2.65;1.60;;;;;;;;;;5047238;28;20534;-67
2022/04/15 05:18:46;;;;;;;2.95;1.75;;;;;;;;;;5046776;28;20144;-67
2022/04/15 05:21:13;;;;;;;3.03;1.80;;;;;;;;;;5047381;28;20045;-68
2022/04/15 05:23:39;;;;;;;3.42;1.80;;;;;;;;;;5047580;28;20053;-67
2022/04/15 05:26:05;;;;;;;3.58;1.63;;;;;;;;;;5047310;28;20056;-67
2022/04/15 05:28:35;;;;;;;3.15;1.83;;;;;;;;;;5047683;28;20125;-68
2022/04/15 05:31:01;;;;;;;15.60;1.83;;;;;;;;;;5051049;28;20056;-67
2022/04/15 05:33:27;;;;;;;4.88;1.70;;;;;;;;;;5050538;28;20049;-67
2022/04/15 05:35:53;;;;;;;5.45;1.70;;;;;;;;;;5050812;28;20136;-67
2022/04/15 05:38:19;;;;;;;3.33;1.63;;;;;;;;;;5051165;28;20052;-67
2022/04/15 05:40:45;;;;;;;2.20;1.55;;;;;;;;;;5034014;28;20068;-67
2022/04/15 05:43:11;;;;;;;2.28;1.50;;;;;;;;;;5051817;28;20089;-66
2022/04/15 05:45:37;;;;;;;3.92;1.58;;;;;;;;;;5033031;28;20073;-66
2022/04/15 05:48:03;;;;;;;3.00;1.60;;;;;;;;;;5052540;28;20055;-67
2022/04/15 05:50:29;;;;;;;5.78;1.90;;;;;;;;;;5033875;28;20052;-67
2022/04/15 05:52:55;;;;;;;6.05;1.60;;;;;;;;;;5051393;28;20191;-67
2022/04/15 05:55:21;;;;;;;6.82;2.13;;;;;;;;;;5051760;28;20051;-67
2022/04/15 05:57:47;;;;;;;3.67;1.70;;;;;;;;;;5051299;28;20068;-67
2022/04/15 06:00:14;;;;;;;3.05;1.95;;;;;;;;;;5050780;28;20072;-67
2022/04/15 06:02:40;;;;;;;2.95;1.60;;;;;;;;;;5051406;28;20055;-67
2022/04/15 06:05:06;;;;;;;3.05;1.60;;;;;;;;;;5051145;28;20044;-68
2022/04/15 06:07:32;;;;;;;2.22;1.50;;;;;;;;;;5051059;28;20045;-67
2022/04/15 06:09:58;;;;;;;4.68;1.88;;;;;;;;;;5050797;28;20048;-67
2022/04/15 06:15:23;;;;;;;3.92;1.60;;;;;;;;;;5048236;28;20294;-67
2022/04/15 06:17:49;;;;;;;4.75;1.70;;;;;;;;;;5030461;28;20049;-67
2022/04/15 06:20:15;;;;;;;3.38;1.58;;;;;;;;;;5013330;28;20508;-67
2022/04/15 06:22:42;;;;;;;3.85;2.13;;;;;;;;;;5032107;28;20487;-67
2022/04/15 06:25:08;;;;;;;4.43;2.00;;;;;;;;;;5032936;28;20045;-67
2022/04/15 06:27:34;;;;;;;3.45;1.70;;;;;;;;;;5050626;28;20037;-66
2022/04/15 06:30:01;;;;;;;3.17;1.83;;;;;;;;;;5050742;28;20090;-67
2022/04/15 06:32:27;;;;;;;2.53;1.83;;;;;;;;;;5050929;28;20041;-68
2022/04/15 06:34:53;;;;;;;3.83;1.80;;;;;;;;;;5050152;28;20053;-68
2022/04/15 06:37:19;;;;;;;3.78;2.20;;;;;;;;;;5050795;28;20056;-70
2022/04/15 06:39:50;;;;;;;5.05;2.50;;;;;;;;;;5049541;28;20081;-68
2022/04/15 06:42:20;;;;;;;4.00;2.13;;;;;;;;;;5049752;28;20041;-68
2022/04/15 06:44:46;;;;;;;4.07;2.20;;;;;;;;;;5050154;28;20037;-67
2022/04/15 06:47:12;;;;;;;4.60;2.20;;;;;;;;;;5050778;28;20049;-68
2022/04/15 06:49:38;;;;;;;5.25;2.85;;;;;;;;;;5050742;28;20045;-67
2022/04/15 06:52:05;;;;;;;4.55;2.10;;;;;;;;;;5050410;28;20052;-67
2022/04/15 06:54:31;;;;;;;3.10;1.90;;;;;;;;;;5050305;28;20067;-68
2022/04/15 06:56:57;;;;;;;3.72;1.92;;;;;;;;;;5050008;28;20041;-68
2022/04/15 06:59:23;;;;;;;5.38;1.77;;;;;;;;;;5049079;28;20041;-68
2022/04/15 07:01:50;;;;;;;3.33;2.00;;;;;;;;;;5050516;28;20534;-68
2022/04/15 07:04:16;;;;;;;3.30;2.00;;;;;;;;;;5049813;28;20063;-69
2022/04/15 07:06:43;;;;;;;4.00;2.20;;;;;;;;;;5050035;28;20071;-70
2022/04/15 07:09:09;;;;;;;5.50;2.45;;;;;;;;;;5049780;28;20474;-69
2022/04/15 07:11:35;;;;;;;4.63;2.00;;;;;;;;;;5050009;28;20047;-69
2022/04/15 07:14:03;;;;;;;4.10;2.35;;;;;;;;;;5049800;28;20040;-69
2022/04/15 07:16:29;;;;;;;6.25;2.20;;;;;;;;;;5049951;28;20127;-70
2022/04/15 07:18:56;;;;;;;6.55;2.25;;;;;;;;;;5049793;28;20124;-69
2022/04/15 07:21:22;;;;;;;4.30;2.58;;;;;;;;;;5048969;28;20049;-68
2022/04/15 07:23:49;;;;;;;5.00;2.30;;;;;;;;;;5049463;28;20044;-68
2022/04/15 07:26:15;;;;;;;4.75;2.30;;;;;;;;;;5049465;28;20103;-68
2022/04/15 07:28:41;;;;;;;3.97;2.40;;;;;;;;;;5049061;28;20056;-68
2022/04/15 07:31:07;;;;;;;5.32;2.40;;;;;;;;;;5049267;28;20395;-68
2022/04/15 07:33:33;;;;;;;4.20;2.45;;;;;;;;;;5048918;28;20418;-68
2022/04/15 07:35:59;;;;;;;5.43;2.50;;;;;;;;;;5049054;28;20053;-69
2022/04/15 07:38:25;;;;;;;5.18;2.70;;;;;;;;;;5049732;28;20380;-68
2022/04/15 07:40:51;;;;;;;4.10;2.20;;;;;;;;;;5049533;28;20041;-68
2022/04/15 07:43:17;;;;;;;6.78;2.38;;;;;;;;;;5049124;28;20037;-70
2022/04/15 07:45:43;;;;;;;3.15;2.20;;;;;;;;;;5049465;28;20395;-70
2022/04/15 07:48:10;;;;;;;5.53;2.05;;;;;;;;;;5048836;28;20045;-70
2022/04/15 07:50:38;;;;;;;4.15;2.42;;;;;;;;;;5049186;28;20084;-67
2022/04/15 07:53:04;;;;;;;3.58;2.00;;;;;;;;;;5049247;28;20049;-69
2022/04/15 07:55:30;;;;;;;4.47;2.20;;;;;;;;;;5048674;28;20094;-70
2022/04/15 07:57:56;;;;;;;3.53;2.05;;;;;;;;;;5049043;28;20406;-66
2022/04/15 08:00:23;;;;;;;3.30;2.03;;;;;;;;;;5048833;28;20081;-69
2022/04/15 08:02:49;;;;;;;4.20;2.28;;;;;;;;;;5049116;28;20094;-70
2022/04/15 08:05:15;;;;;;;5.53;2.20;;;;;;;;;;5048881;28;20048;-68
2022/04/15 08:07:41;;;;;;;5.47;2.30;;;;;;;;;;5048987;28;20572;-68
2022/04/15 08:10:07;;;;;;;4.32;2.22;;;;;;;;;;5048580;28;20132;-67
2022/04/15 08:12:33;;;;;;;4.00;2.05;;;;;;;;;;5047768;28;20048;-67
2022/04/15 08:15:00;;;;;;;3.92;2.15;;;;;;;;;;5048965;28;20048;-68
2022/04/15 08:17:26;;;;;;;5.55;2.35;;;;;;;;;;5048933;28;20495;-68
2022/04/15 08:19:52;;;;;;;3.75;1.75;;;;;;;;;;5048280;28;20526;-68
2022/04/15 08:22:18;;;;;;;3.38;1.90;;;;;;;;;;5048881;28;20530;-68
2022/04/15 08:24:45;;;;;;;4.70;2.15;;;;;;;;;;5048762;28;20135;-68
2022/04/15 08:27:11;;;;;;;2.50;1.83;;;;;;;;;;5048510;28;20049;-69
2022/04/15 08:29:38;;;;;;;4.28;1.95;;;;;;;;;;5048437;28;20064;-68
2022/04/15 08:32:05;;;;;;;6.15;2.60;;;;;;;;;;5048526;28;20118;-68
2022/04/15 08:34:32;;;;;;;3.40;2.03;;;;;;;;;;5048484;28;20052;-67
2022/04/15 08:36:58;;;;;;;3.75;2.00;;;;;;;;;;5047335;28;20116;-68
2022/04/15 08:39:24;;;;;;;14.32;2.30;;;;;;;;;;5047089;28;20037;-68
2022/04/15 08:41:50;;;;;;;5.63;2.28;;;;;;;;;;5048539;28;20055;-69
2022/04/15 08:44:16;;;;;;;8.05;2.72;;;;;;;;;;5048818;28;20052;-69
2022/04/15 08:46:42;;;;;;;8.93;2.70;;;;;;;;;;5048628;28;20052;-69
2022/04/15 08:49:08;;;;;;;11.85;3.45;;;;;;;;;;5048134;28;20044;-69
2022/04/15 08:51:35;;;;;;;9.80;2.53;;;;;;;;;;5048644;28;20057;-68
2022/04/15 08:54:02;;;;;;;10.20;2.90;;;;;;;;;;5046567;28;20072;-69
2022/04/15 08:56:28;;;;;;;9.52;2.90;;;;;;;;;;5047118;28;20102;-68
2022/04/15 08:58:54;;;;;;;17.20;3.13;;;;;;;;;;5048463;28;20098;-68
2022/04/15 09:01:20;;;;;;;9.45;3.13;;;;;;;;;;5047943;28;20059;-68
2022/04/15 09:03:46;;;;;;;8.52;3.10;;;;;;;;;;5050412;28;20041;-68
2022/04/15 09:06:16;;;;;;;8.18;2.95;;;;;;;;;;5055254;28;20535;-68
2022/04/15 09:09:01;;;;;;;6.05;2.95;;;;;;;;;;5055265;28;20052;-69
2022/04/15 09:11:34;;;;;;;7.03;2.38;;;;;;;;;;5055084;28;20367;-69
2022/04/15 09:14:12;;;;;;;6.32;2.45;;;;;;;;;;5054985;28;20051;-69
2022/04/15 09:16:42;;;;;;;10.02;2.78;;;;;;;;;;5055071;28;20045;-68
2022/04/15 09:19:09;;;;;;;5.53;2.53;;;;;;;;;;5054868;28;20041;-69
2022/04/15 09:21:35;;;;;;;6.40;2.70;;;;;;;;;;5055379;28;20049;-68
2022/04/15 09:24:02;;;;;;;8.20;2.55;;;;;;;;;;5054609;28;20487;-68
2022/04/15 09:26:28;;;;;;;7.75;2.97;;;;;;;;;;5055113;28;20060;-68
2022/04/15 09:28:54;;;;;;;6.75;2.80;;;;;;;;;;5053815;28;20045;-68
2022/04/15 09:31:24;;;;;;;5.90;2.55;;;;;;;;;;5054815;28;20099;-68
2022/04/15 09:33:53;;;;;;;5.10;2.85;;;;;;;;;;5054310;28;20484;-69
2022/04/15 09:36:26;;;;;;;6.07;2.47;;;;;;;;;;5053560;28;20171;-68
2022/04/15 09:38:56;;;;;;;6.03;2.67;;;;;;;;;;5053931;28;20071;-68
2022/04/15 09:41:23;;;;;;;5.75;2.67;;;;;;;;;;5054350;28;20055;-68
2022/04/15 09:43:52;;;;;;;5.95;2.25;;;;;;;;;;5054071;28;20055;-68
2022/04/15 09:46:19;;;;;;;6.43;2.63;;;;;;;;;;5054006;28;20103;-69
2022/04/15 09:49:03;;;;;;;4.80;2.50;;;;;;;;;;5054267;28;20096;-68
2022/04/15 09:51:37;;;;;;;5.45;2.67;;;;;;;;;;5053583;28;20138;-68
2022/04/15 09:54:06;;;;;;;5.93;2.28;;;;;;;;;;5054260;28;20045;-68
2022/04/15 09:56:34;;;;;;;5.63;2.72;;;;;;;;;;5054015;28;20414;-68
2022/04/15 09:59:03;;;;;;;5.75;2.88;;;;;;;;;;5054176;28;20045;-68
2022/04/15 10:01:30;;;;;;;5.75;2.22;;;;;;;;;;5053497;28;20470;-68
2022/04/15 10:03:57;;;;;;;4.75;2.33;;;;;;;;;;5053663;28;20048;-69
2022/04/15 10:06:23;;;;;;;5.65;2.65;;;;;;;;;;5054033;28;20045;-69
2022/04/15 10:08:49;;;;;;;4.40;2.40;;;;;;;;;;5053881;28;20047;-69
2022/04/15 10:11:15;;;;;;;6.30;2.55;;;;;;;;;;5054155;28;20069;-68
2022/04/15 10:13:45;;;;;;;5.53;2.53;;;;;;;;;;5053597;28;20491;-69
2022/04/15 10:16:11;;;;;;;3.47;1.95;;;;;;;;;;5051666;28;20189;-69
2022/04/15 10:18:37;;;;;;;6.55;2.88;;;;;;;;;;5050304;28;20052;-68
2022/04/15 10:21:03;;;;;;;4.15;2.35;;;;;;;;;;5050568;28;20254;-68
2022/04/15 10:23:30;;;;;;;4.35;2.25;;;;;;;;;;5050601;28;20106;-68
2022/04/15 10:26:00;;;;;;;7.50;2.40;;;;;;;;;;5050655;28;20091;-68
2022/04/15 10:28:39;;;;;;;6.43;2.55;;;;;;;;;;5050330;28;20041;-69
2022/04/15 10:31:11;;;;;;;5.32;1.98;;;;;;;;;;5050940;28;20792;-69
2022/04/15 10:33:39;;;;;;;4.47;2.10;;;;;;;;;;5050618;28;20496;-69
2022/04/15 10:36:13;;;;;;;4.53;2.25;;;;;;;;;;5050490;28;20164;-68
2022/04/15 10:38:57;;;;;;;4.72;2.38;;;;;;;;;;5050527;28;20049;-68
2022/04/15 10:41:23;;;;;;;5.70;2.30;;;;;;;;;;5050810;28;20041;-69
2022/04/15 10:43:57;;;;;;;5.30;2.60;;;;;;;;;;5050147;28;20040;-69
2022/04/15 10:46:31;;;;;;;4.18;2.03;;;;;;;;;;5032364;28;20049;-68
2022/04/15 10:48:58;;;;;;;5.63;2.67;;;;;;;;;;5050326;28;20040;-68
2022/04/15 10:51:32;;;;;;;5.13;2.22;;;;;;;;;;5049832;28;20041;-68
2022/04/15 10:54:17;;;;;;;4.32;2.33;;;;;;;;;;5050230;28;20396;-68
2022/04/15 10:57:02;;;;;;;5.68;2.80;;;;;;;;;;5050338;28;20045;-68
2022/04/15 11:02:18;;;;;;;4.07;2.40;;;;;;;;;;5038272;28;20087;-68
2022/04/15 11:04:49;;;;;;;4.60;2.42;;;;;;;;;;5050092;28;20072;-69
2022/04/15 11:07:17;;;;;;;5.65;2.88;;;;;;;;;;5049400;28;20461;-68
2022/04/15 11:09:43;;;;;;;5.40;2.70;;;;;;;;;;5049331;28;20447;-68
2022/04/15 11:12:11;;;;;;;6.03;2.70;;;;;;;;;;5048602;28;20045;-69
2022/04/15 11:14:38;;;;;;;5.15;2.50;;;;;;;;;;5049522;28;20045;-68
2022/04/15 11:17:09;;;;;;;4.68;2.22;;;;;;;;;;5048943;28;20131;-68
2022/04/15 11:19:36;;;;;;;4.65;2.50;;;;;;;;;;5049687;28;20102;-68
2022/04/15 11:22:02;;;;;;;3.97;2.33;;;;;;;;;;5049088;28;20079;-68
2022/04/15 11:24:30;;;;;;;5.40;2.42;;;;;;;;;;5047632;28;20487;-70
2022/04/15 11:27:03;;;;;;;4.97;2.58;;;;;;;;;;5049571;28;20049;-69
2022/04/15 11:29:33;;;;;;;4.55;2.13;;;;;;;;;;5049851;28;20053;-68
2022/04/15 11:32:00;;;;;;;5.65;2.65;;;;;;;;;;5031909;28;20048;-68
2022/04/15 11:34:26;;;;;;;4.32;2.33;;;;;;;;;;5049552;28;20095;-69
2022/04/15 11:36:58;;;;;;;4.32;2.45;;;;;;;;;;5048890;28;20069;-68
2022/04/15 11:39:25;;;;;;;5.47;2.85;;;;;;;;;;5049485;28;20045;-68
2022/04/15 11:41:57;;;;;;;4.05;2.30;;;;;;;;;;5049528;28;20051;-68
2022/04/15 11:44:28;;;;;;;5.30;2.45;;;;;;;;;;5049466;28;20056;-68
2022/04/15 11:46:54;;;;;;;3.70;2.15;;;;;;;;;;5049479;28;20402;-68
2022/04/15 11:49:21;;;;;;;4.00;2.15;;;;;;;;;;5049350;28;20124;-67
2022/04/15 11:52:05;;;;;;;4.80;2.58;;;;;;;;;;5048809;28;20447;-67
2022/04/15 11:54:33;;;;;;;4.13;2.22;;;;;;;;;;5036261;28;20120;-69
2022/04/15 11:57:00;;;;;;;3.97;2.15;;;;;;;;;;5013241;28;20056;-68
2022/04/15 11:59:26;;;;;;;3.10;2.28;;;;;;;;;;5011726;28;20116;-70
2022/04/15 12:01:59;;;;;;;3.42;2.17;;;;;;;;;;5029426;28;20038;-69
2022/04/15 12:04:25;;;;;;;4.43;2.65;;;;;;;;;;5028978;28;20412;-70
2022/04/15 12:06:51;;;;;;;3.70;2.38;;;;;;;;;;5044599;28;20504;-70
2022/04/15 12:09:17;;;;;;;3.47;2.30;;;;;;;;;;5029617;28;20041;-69
2022/04/15 12:11:43;;;;;;;6.18;2.40;;;;;;;;;;5035758;28;20081;-69
2022/04/15 12:14:10;;;;;;;3.92;2.33;;;;;;;;;;5028985;28;20049;-69
2022/04/15 12:16:39;;;;;;;4.43;2.13;;;;;;;;;;5028946;28;20152;-69
2022/04/15 12:19:05;;;;;;;4.40;2.40;;;;;;;;;;5030758;28;20048;-68
2022/04/15 12:21:32;;;;;;;5.63;2.28;;;;;;;;;;5029216;28;20037;-68
2022/04/15 12:24:10;;;;;;;3.95;2.38;;;;;;;;;;5041265;28;20059;-67
2022/04/15 12:26:41;;;;;;;37.42;6.13;;;;;;;;;;5046811;28;20049;-67
2022/04/15 12:31:52;;;;;;;24.92;6.00;;;;;;;;;;5049009;28;20480;-68
2022/04/15 12:34:18;;;;;;;20.83;4.10;;;;;;;;;;5047846;28;20470;-68
2022/04/15 12:36:46;;;;;;;22.30;4.57;;;;;;;;;;5030536;28;20061;-69
2022/04/15 12:39:14;;;;;;;23.73;4.38;;;;;;;;;;5027696;28;20053;-69
2022/04/15 12:41:46;;;;;;;16.25;3.70;;;;;;;;;;5030991;28;20250;-69
2022/04/15 12:44:16;;;;;;;17.15;4.10;;;;;;;;;;5028010;28;20049;-69
2022/04/15 12:46:47;;;;;;;8.23;3.40;;;;;;;;;;5044739;28;20057;-69
2022/04/15 12:49:27;;;;;;;12.43;3.47;;;;;;;;;;5039887;28;20044;-69
2022/04/15 12:51:58;;;;;;;9.82;3.42;;;;;;;;;;5047879;28;20498;-70
2022/04/15 12:54:24;;;;;;;15.88;3.40;;;;;;;;;;5047425;28;20048;-70
2022/04/15 12:56:57;;;;;;;13.60;2.85;;;;;;;;;;5048554;28;20052;-68
2022/04/15 12:59:24;;;;;;;15.57;3.83;;;;;;;;;;5048739;28;20495;-68
2022/04/15 13:01:50;;;;;;;13.88;4.15;;;;;;;;;;5048431;28;20048;-68
2022/04/15 13:04:16;;;;;;;9.13;2.95;;;;;;;;;;5048206;28;20049;-69
2022/04/15 13:06:43;;;;;;;11.70;3.20;;;;;;;;;;5047089;28;20495;-69
2022/04/15 13:09:09;;;;;;;8.48;3.33;;;;;;;;;;5047094;28;20047;-69
2022/04/15 13:11:36;;;;;;;13.40;2.90;;;;;;;;;;5047768;28;20059;-69
2022/04/15 13:14:02;;;;;;;7.72;3.38;;;;;;;;;;5048251;28;20134;-68
2022/04/15 13:16:28;;;;;;;8.77;3.63;;;;;;;;;;5047789;28;20506;-68
2022/04/15 13:18:54;;;;;;;9.10;4.10;;;;;;;;;;5048039;28;20052;-68
2022/04/15 13:21:21;;;;;;;9.40;2.90;;;;;;;;;;5046945;28;20067;-67
2022/04/15 13:23:47;;;;;;;11.07;2.83;;;;;;;;;;5048132;28;20517;-67
2022/04/15 13:26:13;;;;;;;7.38;2.92;;;;;;;;;;5047489;28;20529;-67
2022/04/15 13:28:42;;;;;;;9.13;3.40;;;;;;;;;;5048198;28;20044;-67
2022/04/15 13:31:09;;;;;;;7.57;3.05;;;;;;;;;;5048214;28;20407;-68
2022/04/15 13:33:35;;;;;;;11.32;3.15;;;;;;;;;;5047323;28;20466;-67
2022/04/15 13:36:01;;;;;;;11.23;3.88;;;;;;;;;;5047097;28;20068;-67
2022/04/15 13:38:27;;;;;;;5.43;2.85;;;;;;;;;;5047496;28;20352;-68
2022/04/15 13:40:54;;;;;;;8.85;3.15;;;;;;;;;;5047925;28;20604;-68
2022/04/15 13:43:20;;;;;;;6.65;3.00;;;;;;;;;;5047867;28;20435;-67
2022/04/15 13:45:46;;;;;;;5.63;3.08;;;;;;;;;;5048172;28;20052;-68
2022/04/15 13:48:12;;;;;;;7.80;3.22;;;;;;;;;;5047602;28;20060;-67
2022/04/15 13:50:38;;;;;;;7.13;3.00;;;;;;;;;;5048851;28;20369;-66
2022/04/15 13:58:35;;;;;;;6.20;2.53;;;;;;;;;;5051665;28;20048;-66
2022/04/15 14:01:01;;;;;;;6.72;3.10;;;;;;;;;;5051659;28;20796;-66
2022/04/15 14:03:27;;;;;;;7.60;3.13;;;;;;;;;;5052033;28;20040;-66
2022/04/15 14:05:54;;;;;;;8.15;3.83;;;;;;;;;;5051252;28;20123;-66
2022/04/15 14:08:21;;;;;;;5.05;2.63;;;;;;;;;;5052041;28;20052;-66
2022/04/15 14:10:47;;;;;;;5.65;2.92;;;;;;;;;;5049357;28;20460;-66
2022/04/15 14:13:15;;;;;;;4.38;2.60;;;;;;;;;;5051585;28;20041;-66
2022/04/15 14:15:41;;;;;;;6.25;3.30;;;;;;;;;;5051621;28;20049;-66
2022/04/15 14:18:08;;;;;;;7.97;2.70;;;;;;;;;;5051182;28;20057;-66
2022/04/15 14:20:35;;;;;;;5.47;2.92;;;;;;;;;;5051691;28;20049;-66
2022/04/15 14:23:01;;;;;;;6.28;2.92;;;;;;;;;;5050255;28;20041;-67
2022/04/15 14:25:27;;;;;;;37.80;4.53;;;;;;;;;;5050170;28;20171;-67
2022/04/15 14:27:53;;;;;;;8.23;3.08;;;;;;;;;;5047087;28;20127;-69
2022/04/15 14:30:19;;;;;;;5.82;2.60;;;;;;;;;;5049690;28;20048;-69
2022/04/15 14:32:45;;;;;;;16.00;3.03;;;;;;;;;;5048792;28;20530;-68
2022/04/15 14:35:11;;;;;;;7.88;2.53;;;;;;;;;;5048980;28;20049;-68
2022/04/15 14:37:38;;;;;;;6.78;3.00;;;;;;;;;;5047832;28;20049;-68
2022/04/15 14:40:04;;;;;;;5.10;2.65;;;;;;;;;;5047950;28;20079;-69
2022/04/15 14:42:30;;;;;;;7.00;2.83;;;;;;;;;;5048914;28;20529;-69
2022/04/15 14:44:56;;;;;;;6.60;2.47;;;;;;;;;;5049379;28;20477;-69
2022/04/15 14:47:22;;;;;;;5.13;2.85;;;;;;;;;;5049161;28;20181;-69
2022/04/15 14:49:48;;;;;;;9.10;2.72;;;;;;;;;;5049008;28;20114;-69
2022/04/15 14:52:15;;;;;;;3.85;2.38;;;;;;;;;;5049405;28;20083;-70
2022/04/15 14:54:41;;;;;;;4.72;2.55;;;;;;;;;;5049201;28;20088;-69
2022/04/15 14:57:07;;;;;;;4.10;2.45;;;;;;;;;;5049257;28;20045;-69